Portada
METAR-TAF:

METAR-TAF

Aeroports :

Djibouti, Djibouti

latitud: 11-33N, longitud: 043-10E, altitud: 49 m

Observació

L'informe es va fer fa 15 minuts, a les 09:00 UTC
Vent 14 kt del Est
Temperatura 35°C
Humitat 56%
Pressió 1010 hPa
Visibilitat 10 km o més
Escasses núvols a una alçada de 2300 ft

METAR: HDAM 240900Z 09014KT 9999 FEW023 35/25 Q1010

Hora: 12:15 (09:15 UTC)

Pronòstic

L'informe es va fer fa 4 hores i 15 minuts, a les 05:00 UTC
Pronòstic vàlid del 24 a les 06 UTC al 25 a les 06 UTC
Vent 10 kt del Est
Visibilitat 10 km o més
Escasses núvols a una alçada de 2300 ft
Evolucionant progressivament
l' 24 a les 15 UTC al 24 a les 18 UTC
Vent 5 kt amb direcció variable
Núvols disperses a una alçada de 2000 ft
Evolucionant progressivament
l' 25 a les 00 UTC al 25 a les 06 UTC
Vent kt del Nord
Núvols disperses a una alçada de 2000 ft
Núvols disperses a una alçada de 13300 ft

TAF: HDAM 240500Z 2406/2506 10010KT 9999 FEW023 BECMG 2415/2418 VRB05KT SCT020 BECMG 2500/2506 00000KT SCT020 SCT133

Observacions i pronòstics meteorològics de més de 4000 aeroports (METAR i TAF).

Les estacions disponibles són els punts grocs i vermells al mapa.

Posi el ratolí al punt desitjat per veure el nom de l'estació.

Feu clic per veure les observacions i els pronòstics meteorològics.

Per canviar el mapa: feu clic els botons verds amb una creu de color negre per apropar; al botó verd amb un guió per allunyar la imatge; o en les fletxes verdes per a mapes adjacents.


METAR-TAF: